ケープタウン の空港の天気 - METARとTAF

ケープタウン国際空港 ( FACT / CPT ) - 南アフリカ ケープタウン
飛行場実況気象(Metar)
観測時間10/15 19:00 SAST (10/15 17:00 UTC)
風向・風速南 7m/s
視程10km以上
天気現象
なし
気温17℃
湿度77%
気圧1021hPa
METARFACT 151700Z 17013KT CAVOK 17/13 Q1021 NOSIG
過去の天気等 Google飛行場航空写真 Wunderground天気予報

過去48時間のMETAR

飛行場予報(TAF)
発表時間: 10/15 12:00 SAST (10/15 10:00 UTC)
予報対象時間: 15日14時 SAST ~ 16日20時 SAST
風向・風速南 6m/s
視程10km以上
なし
16日5時 SAST から
風向・風速南 11m/s
視程10km以上
なし
TAF FACT 151000Z 1512/1618 18012KT CAVOK TX26/1612Z TN13/1604Z
FM160300 18022KT CAVOK